createdAt,value
2023-02-23T00:01:55.743Z,8.20
2023-02-23T00:04:23.739Z,8.30
2023-02-23T00:06:54.643Z,8.30
2023-02-23T00:09:24.973Z,8.30
2023-02-23T00:11:57.328Z,8.30
2023-02-23T00:14:29.208Z,8.30
2023-02-23T00:16:56.747Z,8.30
2023-02-23T00:19:25.328Z,8.30
2023-02-23T00:21:53.343Z,8.30
2023-02-23T00:24:20.942Z,8.30
2023-02-23T00:26:51.279Z,8.10
2023-02-23T00:29:21.101Z,8.30
2023-02-23T00:31:49.724Z,8.30
2023-02-23T00:34:23.545Z,8.30
2023-02-23T00:36:54.512Z,8.30
2023-02-23T00:39:26.356Z,8.30
2023-02-23T00:41:54.039Z,8.30
2023-02-23T00:44:23.572Z,8.30
2023-02-23T00:46:51.880Z,8.20
2023-02-23T00:49:20.314Z,8.20
2023-02-23T00:51:47.320Z,8.20
2023-02-23T00:54:18.588Z,8.20
2023-02-23T00:56:46.228Z,8.20
2023-02-23T00:59:13.937Z,8.30
2023-02-23T01:01:45.185Z,8.20
2023-02-23T01:04:13.320Z,8.10
2023-02-23T01:06:41.712Z,8.20
2023-02-23T01:09:13.505Z,8.20
2023-02-23T01:11:41.633Z,8.20
2023-02-23T01:14:11.096Z,8.30
2023-02-23T01:16:39.201Z,8.40
2023-02-23T01:19:06.847Z,8.30
2023-02-23T01:21:40.047Z,8.30
2023-02-23T01:24:07.237Z,8.40
2023-02-23T01:26:40.586Z,8.40
2023-02-23T01:29:16.957Z,8.40
2023-02-23T01:31:47.367Z,8.40
2023-02-23T01:34:15.166Z,8.40
2023-02-23T01:36:43.541Z,8.40
2023-02-23T01:39:19.438Z,8.40
2023-02-23T01:41:46.419Z,8.50
2023-02-23T01:44:13.194Z,8.50
2023-02-23T01:46:46.672Z,8.50
2023-02-23T01:49:27.345Z,8.50
2023-02-23T01:52:05.576Z,8.40
2023-02-23T01:54:36.489Z,8.40
2023-02-23T01:57:05.189Z,8.50
2023-02-23T01:59:46.840Z,8.40
2023-02-23T02:02:14.705Z,8.50
2023-02-23T02:04:46.483Z,8.50
2023-02-23T02:07:14.688Z,8.50
2023-02-23T02:10:03.438Z,8.50
2023-02-23T02:12:30.722Z,8.50
2023-02-23T02:15:00.029Z,8.50
2023-02-23T02:17:58.239Z,8.50
2023-02-23T02:20:53.018Z,8.50
2023-02-23T02:23:41.892Z,8.50
2023-02-23T02:26:41.392Z,8.50
2023-02-23T02:29:31.345Z,8.50
2023-02-23T02:32:13.299Z,8.50
2023-02-23T02:35:07.512Z,8.50
2023-02-23T02:37:56.774Z,8.50
2023-02-23T02:40:53.556Z,8.50
2023-02-23T02:43:26.332Z,8.50
2023-02-23T02:45:59.928Z,8.50
2023-02-23T02:48:57.865Z,8.50
2023-02-23T02:51:31.403Z,8.50
2023-02-23T02:54:06.682Z,8.50
2023-02-23T02:56:40.397Z,8.60
2023-02-23T02:59:38.319Z,8.60
2023-02-23T03:02:24.984Z,8.60
2023-02-23T03:05:10.624Z,8.60
2023-02-23T03:08:00.134Z,8.50
2023-02-23T03:11:13.602Z,8.60
2023-02-23T03:14:30.294Z,8.60
2023-02-23T03:17:39.781Z,8.60
2023-02-23T03:20:43.288Z,8.60
2023-02-23T03:23:44.022Z,8.50
2023-02-23T03:26:51.528Z,8.60
2023-02-23T03:29:44.734Z,8.60
2023-02-23T03:32:44.658Z,8.60
2023-02-23T03:35:57.922Z,8.60
2023-02-23T03:39:17.372Z,8.50
2023-02-23T03:42:05.254Z,8.50
2023-02-23T03:44:56.919Z,8.50
2023-02-23T03:47:47.946Z,8.50
2023-02-23T03:50:40.993Z,8.50
2023-02-23T03:53:28.539Z,8.50
2023-02-23T03:56:16.965Z,8.50
2023-02-23T03:59:08.511Z,8.50
2023-02-23T04:01:55.066Z,8.50
2023-02-23T04:04:42.100Z,8.50
2023-02-23T04:07:29.775Z,8.50
2023-02-23T04:10:15.366Z,8.50
2023-02-23T04:13:12.790Z,8.50
2023-02-23T04:15:45.022Z,8.50
2023-02-23T04:18:18.548Z,8.50
2023-02-23T04:20:45.454Z,8.50
2023-02-23T04:23:12.579Z,8.50
2023-02-23T04:25:43.140Z,8.40
2023-02-23T04:28:10.102Z,8.40
2023-02-23T04:30:36.920Z,8.40
2023-02-23T04:33:03.786Z,8.40
2023-02-23T04:35:35.274Z,8.40
2023-02-23T04:38:02.311Z,8.40
2023-02-23T04:40:29.281Z,8.40
2023-02-23T04:42:56.409Z,8.40
2023-02-23T04:45:24.929Z,8.40
2023-02-23T04:47:52.371Z,8.40
2023-02-23T04:50:19.867Z,8.40
2023-02-23T04:52:49.730Z,8.40
2023-02-23T04:55:26.446Z,8.40
2023-02-23T04:57:59.191Z,8.40
2023-02-23T05:00:27.399Z,8.40
2023-02-23T05:02:54.178Z,8.40
2023-02-23T05:05:21.536Z,8.40
2023-02-23T05:07:48.565Z,8.40
2023-02-23T05:10:15.450Z,8.40
2023-02-23T05:12:44.420Z,8.40
2023-02-23T05:15:11.575Z,8.40
2023-02-23T05:17:42.148Z,8.40
2023-02-23T05:20:14.149Z,8.40
2023-02-23T05:22:41.137Z,8.40
2023-02-23T05:25:10.310Z,8.40
2023-02-23T05:27:37.801Z,8.40
2023-02-23T05:30:07.433Z,8.40
2023-02-23T05:32:34.872Z,8.30
2023-02-23T05:35:02.785Z,8.30
2023-02-23T05:37:30.579Z,8.30
2023-02-23T05:39:57.410Z,8.40
2023-02-23T05:42:24.264Z,8.40
2023-02-23T05:44:51.076Z,8.40
2023-02-23T05:47:20.425Z,8.30
2023-02-23T05:49:47.298Z,8.40
2023-02-23T05:52:14.411Z,8.40
2023-02-23T05:54:41.711Z,8.40
2023-02-23T05:57:08.990Z,8.40
2023-02-23T05:59:36.010Z,8.40
2023-02-23T06:02:05.183Z,8.40
2023-02-23T06:04:32.806Z,8.40
2023-02-23T06:07:00.234Z,8.40
2023-02-23T06:09:27.252Z,8.50
2023-02-23T06:11:54.160Z,8.50
2023-02-23T06:14:21.050Z,8.50
2023-02-23T06:16:49.151Z,8.50
2023-02-23T06:19:16.205Z,8.40
2023-02-23T06:21:43.151Z,8.50
2023-02-23T06:24:10.380Z,8.60
2023-02-23T06:26:37.162Z,8.70
2023-02-23T06:29:04.386Z,8.80
2023-02-23T06:31:31.514Z,8.80
2023-02-23T06:33:58.352Z,8.80
2023-02-23T06:36:25.466Z,8.70
2023-02-23T06:38:55.441Z,8.70
2023-02-23T06:41:22.561Z,8.60
2023-02-23T06:43:49.440Z,8.70
2023-02-23T06:46:16.331Z,8.80
2023-02-23T06:48:43.321Z,8.80
2023-02-23T06:51:11.357Z,8.80
2023-02-23T06:53:40.835Z,8.80
2023-02-23T06:56:07.927Z,8.80
2023-02-23T06:58:35.301Z,8.90
2023-02-23T07:01:02.260Z,9.50
2023-02-23T07:03:29.048Z,8.80
2023-02-23T07:05:56.029Z,8.70
2023-02-23T07:08:23.028Z,8.70
2023-02-23T07:10:49.862Z,8.70
2023-02-23T07:13:16.882Z,8.70
2023-02-23T07:15:44.106Z,8.60
2023-02-23T07:18:10.901Z,8.70
2023-02-23T07:20:38.119Z,8.70
2023-02-23T07:23:05.521Z,8.70
2023-02-23T07:25:32.429Z,8.70
2023-02-23T07:27:59.259Z,8.60
2023-02-23T07:30:26.691Z,8.60
2023-02-23T07:32:54.346Z,8.60
2023-02-23T07:35:21.596Z,8.70
2023-02-23T07:37:51.609Z,8.70
2023-02-23T07:40:19.374Z,8.70
2023-02-23T07:42:46.206Z,8.70
2023-02-23T07:45:16.831Z,8.70
2023-02-23T07:47:44.051Z,8.80
2023-02-23T07:50:13.064Z,8.80
2023-02-23T07:52:41.857Z,8.90
2023-02-23T07:55:10.092Z,8.80
2023-02-23T07:57:38.021Z,8.80
2023-02-23T08:00:06.876Z,8.80
2023-02-23T08:02:33.999Z,8.80
2023-02-23T08:05:01.176Z,8.80
2023-02-23T08:07:28.270Z,8.90
2023-02-23T08:09:55.793Z,8.90
2023-02-23T08:12:22.721Z,8.90
2023-02-23T08:14:49.640Z,9.00
2023-02-23T08:17:19.195Z,9.00
2023-02-23T08:19:46.464Z,9.00
2023-02-23T08:22:14.174Z,9.00
2023-02-23T08:24:44.395Z,9.00
2023-02-23T08:27:11.325Z,9.00
2023-02-23T08:29:39.057Z,9.00
2023-02-23T08:32:06.931Z,9.00
2023-02-23T08:34:41.681Z,9.00
2023-02-23T08:37:09.566Z,8.90
2023-02-23T08:39:38.279Z,9.00
2023-02-23T08:42:05.954Z,8.90
2023-02-23T08:44:36.726Z,9.00
2023-02-23T08:47:04.922Z,9.00
2023-02-23T08:49:32.560Z,9.00
2023-02-23T08:51:59.788Z,9.00
2023-02-23T08:54:27.752Z,9.00
2023-02-23T08:56:58.427Z,9.00
2023-02-23T08:59:25.839Z,9.00
2023-02-23T09:01:55.267Z,9.00
2023-02-23T09:04:22.642Z,9.00
2023-02-23T09:06:50.939Z,9.00
2023-02-23T09:09:18.954Z,8.90
2023-02-23T09:11:47.024Z,8.90
2023-02-23T09:14:15.075Z,8.80
2023-02-23T09:16:41.959Z,8.80
2023-02-23T09:19:08.834Z,8.90
2023-02-23T09:21:35.684Z,8.90
2023-02-23T09:24:03.461Z,8.90
2023-02-23T09:26:31.957Z,8.90
2023-02-23T09:29:00.978Z,8.90
2023-02-23T09:31:30.403Z,8.90
2023-02-23T09:34:00.768Z,9.00
2023-02-23T09:36:29.414Z,9.00
2023-02-23T09:38:58.182Z,9.00
2023-02-23T09:41:36.191Z,9.00
2023-02-23T09:44:07.787Z,9.00
2023-02-23T09:46:39.717Z,9.00
2023-02-23T09:49:14.424Z,9.00
2023-02-23T09:51:46.437Z,9.10
2023-02-23T09:54:18.130Z,9.10
2023-02-23T09:56:47.782Z,8.90
2023-02-23T09:59:18.209Z,8.90
2023-02-23T10:02:03.239Z,9.00
2023-02-23T10:04:36.372Z,9.00
2023-02-23T10:07:17.078Z,9.00
2023-02-23T10:10:00.063Z,9.00
2023-02-23T10:12:33.944Z,9.00
2023-02-23T10:15:29.726Z,9.00
2023-02-23T10:18:03.294Z,8.90
2023-02-23T10:20:50.974Z,8.70
2023-02-23T10:23:28.650Z,8.60
2023-02-23T10:26:00.259Z,8.60
2023-02-23T10:28:28.874Z,8.60
2023-02-23T10:30:57.257Z,8.60
2023-02-23T10:33:30.126Z,8.60
2023-02-23T10:36:13.005Z,8.60
2023-02-23T10:38:41.175Z,8.60
2023-02-23T10:41:10.168Z,8.70
2023-02-23T10:43:37.533Z,8.70
2023-02-23T10:46:05.785Z,8.50
2023-02-23T10:48:40.145Z,8.60
2023-02-23T10:51:16.252Z,8.50
2023-02-23T10:53:43.948Z,8.50
2023-02-23T10:56:17.722Z,8.40
2023-02-23T10:58:46.656Z,8.40
2023-02-23T11:01:15.761Z,8.40
2023-02-23T11:04:05.372Z,8.40
2023-02-23T11:06:40.062Z,8.40
2023-02-23T11:09:44.589Z,8.40
2023-02-23T11:12:25.673Z,8.40
2023-02-23T11:14:55.357Z,8.40
2023-02-23T11:17:35.308Z,8.50
2023-02-23T11:20:21.085Z,8.50
2023-02-23T11:22:48.074Z,8.60
2023-02-23T11:25:30.404Z,8.60
2023-02-23T11:27:58.944Z,8.70
2023-02-23T11:30:37.657Z,8.80
2023-02-23T11:33:12.921Z,8.90
2023-02-23T11:35:39.905Z,8.90
2023-02-23T11:38:35.930Z,9.00
2023-02-23T11:41:05.479Z,9.00
2023-02-23T11:43:32.406Z,9.00
2023-02-23T11:46:02.072Z,9.00
2023-02-23T11:48:43.017Z,9.00
2023-02-23T11:51:10.254Z,9.10
2023-02-23T11:53:44.940Z,9.10
2023-02-23T11:56:12.802Z,9.10
2023-02-23T11:59:18.750Z,9.10
2023-02-23T12:01:52.878Z,9.10
2023-02-23T12:04:37.295Z,9.10
2023-02-23T12:07:58.299Z,9.00
2023-02-23T12:10:34.934Z,9.00
2023-02-23T12:13:07.947Z,9.00
2023-02-23T12:15:50.514Z,9.00
2023-02-23T12:18:41.917Z,9.00
2023-02-23T12:21:34.916Z,9.00
2023-02-23T12:24:49.386Z,9.00
2023-02-23T12:27:35.106Z,9.10
2023-02-23T12:30:43.573Z,9.00
2023-02-23T12:33:20.612Z,9.00
2023-02-23T12:36:04.001Z,9.00
2023-02-23T12:38:54.850Z,9.20
2023-02-23T12:41:41.920Z,9.20
2023-02-23T12:44:19.759Z,9.20
2023-02-23T12:46:51.362Z,9.20
2023-02-23T12:49:28.207Z,9.10
2023-02-23T12:52:19.460Z,9.20
2023-02-23T12:54:49.396Z,9.10
2023-02-23T12:57:42.825Z,9.00
2023-02-23T13:00:50.513Z,9.00
2023-02-23T13:03:36.057Z,8.90
2023-02-23T13:06:21.902Z,9.00
2023-02-23T13:09:06.121Z,10.10
2023-02-23T13:11:47.818Z,8.90
2023-02-23T13:14:32.373Z,8.90
2023-02-23T13:17:13.658Z,8.90
2023-02-23T13:19:53.716Z,8.90
2023-02-23T13:22:27.045Z,8.90
2023-02-23T13:24:57.440Z,8.90
2023-02-23T13:27:43.556Z,8.80
2023-02-23T13:30:11.810Z,9.00
2023-02-23T13:32:39.605Z,9.00
2023-02-23T13:35:15.977Z,9.00
2023-02-23T13:37:51.888Z,9.00
2023-02-23T13:40:21.949Z,8.90
2023-02-23T13:42:58.723Z,8.80
2023-02-23T13:45:25.695Z,8.90
2023-02-23T13:48:14.024Z,8.90
2023-02-23T13:51:03.161Z,8.90
2023-02-23T13:53:36.639Z,8.80
2023-02-23T13:56:09.672Z,8.90
2023-02-23T13:58:37.469Z,8.90
2023-02-23T14:01:10.158Z,8.90
2023-02-23T14:03:44.201Z,8.80
2023-02-23T14:06:15.458Z,8.80
2023-02-23T14:08:45.555Z,8.70
2023-02-23T14:11:44.287Z,8.70
2023-02-23T14:14:35.255Z,8.60
2023-02-23T14:17:14.331Z,8.50
2023-02-23T14:20:27.904Z,8.40
2023-02-23T14:23:28.706Z,8.40
2023-02-23T14:26:11.753Z,8.50
2023-02-23T14:29:00.204Z,8.40
2023-02-23T14:31:32.000Z,8.40
2023-02-23T14:34:00.375Z,8.40
2023-02-23T14:36:29.562Z,8.40
2023-02-23T14:38:56.784Z,8.40
2023-02-23T14:41:34.554Z,8.40
2023-02-23T14:44:17.146Z,8.40
2023-02-23T14:47:13.925Z,8.50
2023-02-23T14:49:59.328Z,8.50
2023-02-23T14:52:41.012Z,8.50
2023-02-23T14:55:27.333Z,8.40
2023-02-23T14:57:55.488Z,8.40
2023-02-23T15:00:41.368Z,8.40
2023-02-23T15:03:13.021Z,8.40
2023-02-23T15:05:43.163Z,8.30
2023-02-23T15:08:18.386Z,8.30
2023-02-23T15:10:51.750Z,8.30
2023-02-23T15:13:32.984Z,8.30
2023-02-23T15:16:08.349Z,8.20
2023-02-23T15:18:43.194Z,8.20
2023-02-23T15:21:14.540Z,8.20
2023-02-23T15:23:44.188Z,8.10
2023-02-23T15:26:24.758Z,8.10
2023-02-23T15:28:53.394Z,8.10
2023-02-23T15:31:21.454Z,8.10
2023-02-23T15:33:51.196Z,8.10
2023-02-23T15:36:30.213Z,8.10
2023-02-23T15:39:01.229Z,8.10
2023-02-23T15:41:38.757Z,8.00
2023-02-23T15:44:38.397Z,8.00
2023-02-23T15:47:29.379Z,8.10
2023-02-23T15:50:08.923Z,8.00
2023-02-23T15:52:46.761Z,8.00
2023-02-23T15:55:22.844Z,8.00
2023-02-23T15:58:15.896Z,8.00
2023-02-23T16:00:51.432Z,7.90
2023-02-23T16:03:46.157Z,7.90
2023-02-23T16:06:32.874Z,8.00
2023-02-23T16:09:25.703Z,7.90
2023-02-23T16:12:05.078Z,7.90
2023-02-23T16:14:55.160Z,7.80
2023-02-23T16:17:26.574Z,7.80
2023-02-23T16:20:13.918Z,7.70
2023-02-23T16:22:49.035Z,7.70
2023-02-23T16:25:18.974Z,7.70
2023-02-23T16:27:47.794Z,7.70
2023-02-23T16:30:23.696Z,7.60
2023-02-23T16:33:06.146Z,7.70
2023-02-23T16:35:45.785Z,7.60
2023-02-23T16:38:26.233Z,7.60
2023-02-23T16:40:53.942Z,7.60
2023-02-23T16:43:21.007Z,7.60
2023-02-23T16:45:48.817Z,7.60
2023-02-23T16:48:18.227Z,7.60
2023-02-23T16:50:45.889Z,7.50
2023-02-23T16:53:13.713Z,7.50
2023-02-23T16:55:49.195Z,7.50
2023-02-23T16:58:19.070Z,7.50
2023-02-23T17:00:46.059Z,7.50
2023-02-23T17:03:20.897Z,7.50
2023-02-23T17:05:48.017Z,7.50
2023-02-23T17:08:14.924Z,7.50
2023-02-23T17:10:43.469Z,7.50
2023-02-23T17:13:20.278Z,7.50
2023-02-23T17:15:53.633Z,7.50
2023-02-23T17:18:26.766Z,7.50
2023-02-23T17:20:55.407Z,7.40
2023-02-23T17:23:28.520Z,7.40
2023-02-23T17:25:58.947Z,7.40
2023-02-23T17:28:26.214Z,7.40
2023-02-23T17:30:55.378Z,7.40
2023-02-23T17:33:23.623Z,7.30
2023-02-23T17:35:51.674Z,7.30
2023-02-23T17:38:21.875Z,7.30
2023-02-23T17:40:50.582Z,7.40
2023-02-23T17:43:21.256Z,7.50
2023-02-23T17:45:51.561Z,7.40
2023-02-23T17:48:19.460Z,7.40
2023-02-23T17:50:46.957Z,7.40
2023-02-23T17:53:14.282Z,7.40
2023-02-23T17:55:42.264Z,7.40
2023-02-23T17:58:09.942Z,7.30
2023-02-23T18:00:38.982Z,7.40
2023-02-23T18:03:05.971Z,7.30
2023-02-23T18:05:33.438Z,7.40
2023-02-23T18:08:00.617Z,7.30
2023-02-23T18:10:27.532Z,7.30
2023-02-23T18:12:55.071Z,7.30
2023-02-23T18:15:22.721Z,7.30
2023-02-23T18:17:49.711Z,7.30
2023-02-23T18:20:17.481Z,7.30
2023-02-23T18:22:44.643Z,7.30
2023-02-23T18:25:43.564Z,7.40
2023-02-23T18:28:13.305Z,7.40
2023-02-23T18:30:41.319Z,7.30
2023-02-23T18:33:09.801Z,7.30
2023-02-23T18:35:42.543Z,7.30
2023-02-23T18:38:11.784Z,7.30
2023-02-23T18:40:39.877Z,7.30
2023-02-23T18:43:07.108Z,7.40
2023-02-23T18:45:34.438Z,7.30
2023-02-23T18:48:01.978Z,7.40
2023-02-23T18:50:29.007Z,7.40
2023-02-23T18:52:58.067Z,7.40
2023-02-23T18:55:25.538Z,7.40
2023-02-23T18:57:53.083Z,7.40
2023-02-23T19:00:20.945Z,7.40
2023-02-23T19:02:48.823Z,7.40
2023-02-23T19:05:20.131Z,7.40
2023-02-23T19:07:48.130Z,7.40
2023-02-23T19:10:17.875Z,7.40
2023-02-23T19:12:44.962Z,7.40
2023-02-23T19:15:12.886Z,7.40
2023-02-23T19:17:39.730Z,7.40
2023-02-23T19:20:13.676Z,7.40
2023-02-23T19:22:42.036Z,7.40
2023-02-23T19:25:11.768Z,7.40
2023-02-23T19:27:39.048Z,7.40
2023-02-23T19:30:10.099Z,7.40
2023-02-23T19:32:42.636Z,7.30
2023-02-23T19:35:13.692Z,7.40
2023-02-23T19:37:49.274Z,7.40
2023-02-23T19:40:20.930Z,7.40
2023-02-23T19:42:49.895Z,7.40
2023-02-23T19:45:18.937Z,7.40
2023-02-23T19:47:46.004Z,7.50
2023-02-23T19:50:17.322Z,7.40
2023-02-23T19:52:46.084Z,7.40
2023-02-23T19:55:13.533Z,7.40
2023-02-23T19:57:40.463Z,7.40
2023-02-23T20:00:12.248Z,7.40
2023-02-23T20:02:43.907Z,7.00
2023-02-23T20:05:16.219Z,6.80
2023-02-23T20:07:43.804Z,6.50
2023-02-23T20:10:16.286Z,6.20
2023-02-23T20:12:44.277Z,6.10
2023-02-23T20:15:11.656Z,6.10
2023-02-23T20:17:40.297Z,6.00
2023-02-23T20:20:10.318Z,5.90
2023-02-23T20:22:38.057Z,5.90
2023-02-23T20:25:06.048Z,5.90
2023-02-23T20:27:36.206Z,5.90
2023-02-23T20:30:04.302Z,5.80
2023-02-23T20:32:31.504Z,5.80
2023-02-23T20:35:00.609Z,5.80
2023-02-23T20:37:27.859Z,5.80
2023-02-23T20:39:55.139Z,5.80
2023-02-23T20:42:22.223Z,5.70
2023-02-23T20:44:49.255Z,5.60
2023-02-23T20:47:18.298Z,5.60
2023-02-23T20:49:45.266Z,5.60
2023-02-23T20:52:12.265Z,5.60
2023-02-23T20:54:40.014Z,5.70
2023-02-23T20:57:09.747Z,5.70
2023-02-23T20:59:37.080Z,5.70
2023-02-23T21:02:05.664Z,5.60
2023-02-23T21:04:36.109Z,5.60
2023-02-23T21:07:05.040Z,5.70
2023-02-23T21:09:33.120Z,5.60
2023-02-23T21:12:00.670Z,5.60
2023-02-23T21:14:27.923Z,5.60
2023-02-23T21:16:55.162Z,5.50
2023-02-23T21:19:22.220Z,5.50
2023-02-23T21:21:56.517Z,5.50
2023-02-23T21:24:24.161Z,5.50
2023-02-23T21:26:52.188Z,5.40
2023-02-23T21:29:19.698Z,5.40
2023-02-23T21:31:47.746Z,5.30
2023-02-23T21:34:24.233Z,5.40
2023-02-23T21:36:53.058Z,5.30
2023-02-23T21:39:21.750Z,5.30
2023-02-23T21:41:49.189Z,5.40
2023-02-23T21:44:16.377Z,5.40
2023-02-23T21:46:43.553Z,5.30
2023-02-23T21:49:11.121Z,5.30
2023-02-23T21:51:38.947Z,5.30
2023-02-23T21:54:06.414Z,5.20
2023-02-23T21:56:34.738Z,5.20
2023-02-23T21:59:03.024Z,5.30
2023-02-23T22:01:35.218Z,5.30
2023-02-23T22:04:03.736Z,5.40
2023-02-23T22:06:36.998Z,5.30
2023-02-23T22:09:06.006Z,5.30
2023-02-23T22:11:36.361Z,5.30
2023-02-23T22:14:06.605Z,5.30
2023-02-23T22:16:37.781Z,5.30
2023-02-23T22:19:06.280Z,5.30
2023-02-23T22:21:36.225Z,5.40
2023-02-23T22:24:05.571Z,5.30
2023-02-23T22:26:34.634Z,5.30
2023-02-23T22:29:02.377Z,5.30
2023-02-23T22:31:29.547Z,5.20
2023-02-23T22:33:57.089Z,5.20
2023-02-23T22:36:23.991Z,5.20
2023-02-23T22:38:50.827Z,5.30
2023-02-23T22:41:17.935Z,5.20
2023-02-23T22:43:46.457Z,5.20
2023-02-23T22:46:17.069Z,5.20
2023-02-23T22:48:45.150Z,5.20
2023-02-23T22:51:14.273Z,5.30
2023-02-23T22:53:41.867Z,5.30
2023-02-23T22:56:09.521Z,5.30
2023-02-23T22:58:36.878Z,5.10
2023-02-23T23:01:09.733Z,5.10
2023-02-23T23:03:48.161Z,5.10
2023-02-23T23:06:17.694Z,5.00
2023-02-23T23:08:46.081Z,4.90
2023-02-23T23:11:15.930Z,4.80
2023-02-23T23:13:48.605Z,4.70
2023-02-23T23:16:30.539Z,4.60
2023-02-23T23:19:04.530Z,4.60
2023-02-23T23:21:33.840Z,4.60
2023-02-23T23:24:06.211Z,4.50
2023-02-23T23:26:35.408Z,4.50
2023-02-23T23:29:07.127Z,4.50
2023-02-23T23:31:35.946Z,4.50
2023-02-23T23:34:06.190Z,4.60
2023-02-23T23:36:46.435Z,4.60
2023-02-23T23:39:16.199Z,4.50
2023-02-23T23:41:43.914Z,4.40
2023-02-23T23:44:10.942Z,4.30
2023-02-23T23:46:39.796Z,4.30
2023-02-23T23:49:11.060Z,4.30
2023-02-23T23:51:44.928Z,4.30
2023-02-23T23:54:17.976Z,4.20
2023-02-23T23:56:45.251Z,4.20
2023-02-23T23:59:16.411Z,4.20
